sensor_id;sensor_type;location;lat;lon;timestamp;temperature;humidity
4910;DHT22;2470;49.868;8.660;2024-03-06T00:01:49;8.30;99.90
4910;DHT22;2470;49.868;8.660;2024-03-06T00:04:14;8.20;99.90
4910;DHT22;2470;49.868;8.660;2024-03-06T00:06:40;8.20;99.90
4910;DHT22;2470;49.868;8.660;2024-03-06T00:09:05;8.20;99.90
4910;DHT22;2470;49.868;8.660;2024-03-06T00:11:31;8.10;99.90
4910;DHT22;2470;49.868;8.660;2024-03-06T00:13:56;8.10;99.90
4910;DHT22;2470;49.868;8.660;2024-03-06T00:16:24;8.10;99.90
4910;DHT22;2470;49.868;8.660;2024-03-06T00:18:50;8.10;99.90
4910;DHT22;2470;49.868;8.660;2024-03-06T00:21:15;8.00;99.90
4910;DHT22;2470;49.868;8.660;2024-03-06T00:23:41;8.10;99.90
4910;DHT22;2470;49.868;8.660;2024-03-06T00:26:06;8.10;99.90
4910;DHT22;2470;49.868;8.660;2024-03-06T00:28:32;8.10;99.90
4910;DHT22;2470;49.868;8.660;2024-03-06T00:30:57;8.10;99.90
4910;DHT22;2470;49.868;8.660;2024-03-06T00:33:23;8.10;99.90
4910;DHT22;2470;49.868;8.660;2024-03-06T00:35:49;8.10;99.90
4910;DHT22;2470;49.868;8.660;2024-03-06T00:38:15;8.10;99.90
4910;DHT22;2470;49.868;8.660;2024-03-06T00:40:40;8.00;99.90
4910;DHT22;2470;49.868;8.660;2024-03-06T00:43:06;8.00;99.90
4910;DHT22;2470;49.868;8.660;2024-03-06T00:45:32;8.00;99.90
4910;DHT22;2470;49.868;8.660;2024-03-06T00:47:57;8.00;99.90
4910;DHT22;2470;49.868;8.660;2024-03-06T00:50:23;8.00;99.90
4910;DHT22;2470;49.868;8.660;2024-03-06T00:52:49;8.00;99.90
4910;DHT22;2470;49.868;8.660;2024-03-06T00:55:15;8.10;99.90
4910;DHT22;2470;49.868;8.660;2024-03-06T00:57:40;8.10;99.90
4910;DHT22;2470;49.868;8.660;2024-03-06T01:00:06;8.10;99.90
4910;DHT22;2470;49.868;8.660;2024-03-06T01:02:36;8.10;99.90
4910;DHT22;2470;49.868;8.660;2024-03-06T01:05:02;8.10;99.90
4910;DHT22;2470;49.868;8.660;2024-03-06T01:07:29;8.10;99.90
4910;DHT22;2470;49.868;8.660;2024-03-06T01:09:55;8.10;99.90
4910;DHT22;2470;49.868;8.660;2024-03-06T01:12:23;8.10;99.90
4910;DHT22;2470;49.868;8.660;2024-03-06T01:14:48;8.10;99.90
4910;DHT22;2470;49.868;8.660;2024-03-06T01:17:14;8.10;99.90
4910;DHT22;2470;49.868;8.660;2024-03-06T01:19:39;8.10;99.90
4910;DHT22;2470;49.868;8.660;2024-03-06T01:22:05;8.10;99.90
4910;DHT22;2470;49.868;8.660;2024-03-06T01:24:30;8.00;99.90
4910;DHT22;2470;49.868;8.660;2024-03-06T01:26:56;8.00;99.90
4910;DHT22;2470;49.868;8.660;2024-03-06T01:29:21;8.00;99.90
4910;DHT22;2470;49.868;8.660;2024-03-06T01:31:47;8.00;99.90
4910;DHT22;2470;49.868;8.660;2024-03-06T01:34:13;8.00;99.90
4910;DHT22;2470;49.868;8.660;2024-03-06T01:36:38;8.00;99.90
4910;DHT22;2470;49.868;8.660;2024-03-06T01:39:04;8.00;99.90
4910;DHT22;2470;49.868;8.660;2024-03-06T01:41:29;8.00;99.90
4910;DHT22;2470;49.868;8.660;2024-03-06T01:43:55;8.00;99.90
4910;DHT22;2470;49.868;8.660;2024-03-06T01:46:20;8.00;99.90
4910;DHT22;2470;49.868;8.660;2024-03-06T01:48:46;8.00;99.90
4910;DHT22;2470;49.868;8.660;2024-03-06T01:51:12;8.00;99.90
4910;DHT22;2470;49.868;8.660;2024-03-06T01:53:38;7.90;99.90
4910;DHT22;2470;49.868;8.660;2024-03-06T01:56:04;7.90;99.90
4910;DHT22;2470;49.868;8.660;2024-03-06T01:58:31;7.80;99.90
4910;DHT22;2470;49.868;8.660;2024-03-06T02:00:57;7.80;99.90
4910;DHT22;2470;49.868;8.660;2024-03-06T02:03:25;7.80;99.90
4910;DHT22;2470;49.868;8.660;2024-03-06T02:05:53;7.80;99.90
4910;DHT22;2470;49.868;8.660;2024-03-06T02:08:18;7.70;99.90
4910;DHT22;2470;49.868;8.660;2024-03-06T02:10:44;7.70;99.90
4910;DHT22;2470;49.868;8.660;2024-03-06T02:13:11;7.70;99.90
4910;DHT22;2470;49.868;8.660;2024-03-06T02:15:37;7.70;99.90
4910;DHT22;2470;49.868;8.660;2024-03-06T02:18:05;7.70;99.90
4910;DHT22;2470;49.868;8.660;2024-03-06T02:20:31;7.60;99.90
4910;DHT22;2470;49.868;8.660;2024-03-06T02:22:57;7.70;99.90
4910;DHT22;2470;49.868;8.660;2024-03-06T02:25:22;7.70;99.90
4910;DHT22;2470;49.868;8.660;2024-03-06T02:27:48;7.60;99.90
4910;DHT22;2470;49.868;8.660;2024-03-06T02:30:19;7.70;99.90
4910;DHT22;2470;49.868;8.660;2024-03-06T02:32:46;7.70;99.90
4910;DHT22;2470;49.868;8.660;2024-03-06T02:35:11;7.60;99.90
4910;DHT22;2470;49.868;8.660;2024-03-06T02:37:38;7.60;99.90
4910;DHT22;2470;49.868;8.660;2024-03-06T02:40:04;7.60;99.90
4910;DHT22;2470;49.868;8.660;2024-03-06T02:42:32;7.60;99.90
4910;DHT22;2470;49.868;8.660;2024-03-06T02:44:58;7.60;99.90
4910;DHT22;2470;49.868;8.660;2024-03-06T02:47:23;7.50;99.90
4910;DHT22;2470;49.868;8.660;2024-03-06T02:49:49;7.50;99.90
4910;DHT22;2470;49.868;8.660;2024-03-06T02:52:15;7.50;99.90
4910;DHT22;2470;49.868;8.660;2024-03-06T02:54:41;7.50;99.90
4910;DHT22;2470;49.868;8.660;2024-03-06T02:57:07;7.50;99.90
4910;DHT22;2470;49.868;8.660;2024-03-06T02:59:33;7.50;99.90
4910;DHT22;2470;49.868;8.660;2024-03-06T03:01:58;7.40;99.90
4910;DHT22;2470;49.868;8.660;2024-03-06T03:04:24;7.40;99.90
4910;DHT22;2470;49.868;8.660;2024-03-06T03:06:51;7.40;99.90
4910;DHT22;2470;49.868;8.660;2024-03-06T03:09:17;7.30;99.90
4910;DHT22;2470;49.868;8.660;2024-03-06T03:11:43;7.30;99.90
4910;DHT22;2470;49.868;8.660;2024-03-06T03:14:09;7.30;99.90
4910;DHT22;2470;49.868;8.660;2024-03-06T03:16:35;7.30;99.90
4910;DHT22;2470;49.868;8.660;2024-03-06T03:19:01;7.40;99.90
4910;DHT22;2470;49.868;8.660;2024-03-06T03:21:26;7.40;99.90
4910;DHT22;2470;49.868;8.660;2024-03-06T03:23:52;7.40;99.90
4910;DHT22;2470;49.868;8.660;2024-03-06T03:26:17;7.40;99.90
4910;DHT22;2470;49.868;8.660;2024-03-06T03:28:43;7.40;99.90
4910;DHT22;2470;49.868;8.660;2024-03-06T03:31:09;7.40;99.90
4910;DHT22;2470;49.868;8.660;2024-03-06T03:33:39;7.40;99.90
4910;DHT22;2470;49.868;8.660;2024-03-06T03:36:05;7.40;99.90
4910;DHT22;2470;49.868;8.660;2024-03-06T03:38:32;7.30;99.90
4910;DHT22;2470;49.868;8.660;2024-03-06T03:40:58;7.30;99.90
4910;DHT22;2470;49.868;8.660;2024-03-06T03:43:24;7.30;99.90
4910;DHT22;2470;49.868;8.660;2024-03-06T03:45:49;7.30;99.90
4910;DHT22;2470;49.868;8.660;2024-03-06T03:48:15;7.30;99.90
4910;DHT22;2470;49.868;8.660;2024-03-06T03:50:40;7.30;99.90
4910;DHT22;2470;49.868;8.660;2024-03-06T03:53:06;7.30;99.90
4910;DHT22;2470;49.868;8.660;2024-03-06T03:55:31;7.30;99.90
4910;DHT22;2470;49.868;8.660;2024-03-06T03:57:57;7.20;99.90
4910;DHT22;2470;49.868;8.660;2024-03-06T04:00:22;7.20;99.90
4910;DHT22;2470;49.868;8.660;2024-03-06T04:02:48;7.20;99.90
4910;DHT22;2470;49.868;8.660;2024-03-06T04:05:14;7.20;99.90
4910;DHT22;2470;49.868;8.660;2024-03-06T04:07:40;7.10;99.90
4910;DHT22;2470;49.868;8.660;2024-03-06T04:10:06;7.10;99.90
4910;DHT22;2470;49.868;8.660;2024-03-06T04:12:32;7.00;99.90
4910;DHT22;2470;49.868;8.660;2024-03-06T04:14:57;7.00;99.90
4910;DHT22;2470;49.868;8.660;2024-03-06T04:17:23;7.00;99.90
4910;DHT22;2470;49.868;8.660;2024-03-06T04:19:50;7.00;99.90
4910;DHT22;2470;49.868;8.660;2024-03-06T04:22:18;7.00;99.90
4910;DHT22;2470;49.868;8.660;2024-03-06T04:24:44;7.00;99.90
4910;DHT22;2470;49.868;8.660;2024-03-06T04:27:10;6.90;99.90
4910;DHT22;2470;49.868;8.660;2024-03-06T04:29:35;6.90;99.90
4910;DHT22;2470;49.868;8.660;2024-03-06T04:32:01;6.90;99.90
4910;DHT22;2470;49.868;8.660;2024-03-06T04:34:26;6.90;99.90
4910;DHT22;2470;49.868;8.660;2024-03-06T04:36:52;6.80;99.90
4910;DHT22;2470;49.868;8.660;2024-03-06T04:39:18;6.80;99.90
4910;DHT22;2470;49.868;8.660;2024-03-06T04:41:43;6.70;99.90
4910;DHT22;2470;49.868;8.660;2024-03-06T04:44:08;6.70;99.90
4910;DHT22;2470;49.868;8.660;2024-03-06T04:46:34;6.70;99.90
4910;DHT22;2470;49.868;8.660;2024-03-06T04:49:00;6.70;99.90
4910;DHT22;2470;49.868;8.660;2024-03-06T04:51:25;6.70;99.90
4910;DHT22;2470;49.868;8.660;2024-03-06T04:53:51;6.70;99.90
4910;DHT22;2470;49.868;8.660;2024-03-06T04:56:16;6.70;99.90
4910;DHT22;2470;49.868;8.660;2024-03-06T04:58:44;6.70;99.90
4910;DHT22;2470;49.868;8.660;2024-03-06T05:01:11;6.70;99.90
4910;DHT22;2470;49.868;8.660;2024-03-06T05:03:36;6.70;99.90
4910;DHT22;2470;49.868;8.660;2024-03-06T05:06:04;6.60;99.90
4910;DHT22;2470;49.868;8.660;2024-03-06T05:08:30;6.60;99.90
4910;DHT22;2470;49.868;8.660;2024-03-06T05:10:56;6.60;99.90
4910;DHT22;2470;49.868;8.660;2024-03-06T05:13:22;6.60;99.90
4910;DHT22;2470;49.868;8.660;2024-03-06T05:15:47;6.60;99.90
4910;DHT22;2470;49.868;8.660;2024-03-06T05:18:13;6.60;99.90
4910;DHT22;2470;49.868;8.660;2024-03-06T05:20:38;6.60;99.90
4910;DHT22;2470;49.868;8.660;2024-03-06T05:23:04;6.50;99.90
4910;DHT22;2470;49.868;8.660;2024-03-06T05:25:29;6.50;99.90
4910;DHT22;2470;49.868;8.660;2024-03-06T05:27:55;6.50;99.90
4910;DHT22;2470;49.868;8.660;2024-03-06T05:30:20;6.40;99.90
4910;DHT22;2470;49.868;8.660;2024-03-06T05:32:46;6.40;99.90
4910;DHT22;2470;49.868;8.660;2024-03-06T05:35:12;6.40;99.90
4910;DHT22;2470;49.868;8.660;2024-03-06T05:37:38;6.40;99.90
4910;DHT22;2470;49.868;8.660;2024-03-06T05:40:04;6.40;99.90
4910;DHT22;2470;49.868;8.660;2024-03-06T05:42:30;6.50;99.90
4910;DHT22;2470;49.868;8.660;2024-03-06T05:44:57;6.50;99.90
4910;DHT22;2470;49.868;8.660;2024-03-06T05:47:26;6.50;99.90
4910;DHT22;2470;49.868;8.660;2024-03-06T05:49:52;6.50;99.90
4910;DHT22;2470;49.868;8.660;2024-03-06T05:52:17;6.60;99.90
4910;DHT22;2470;49.868;8.660;2024-03-06T05:54:43;6.60;99.90
4910;DHT22;2470;49.868;8.660;2024-03-06T05:57:08;6.60;99.90
4910;DHT22;2470;49.868;8.660;2024-03-06T05:59:34;6.60;99.90
4910;DHT22;2470;49.868;8.660;2024-03-06T06:01:59;6.70;99.90
4910;DHT22;2470;49.868;8.660;2024-03-06T06:04:25;6.70;99.90
4910;DHT22;2470;49.868;8.660;2024-03-06T06:06:51;6.70;99.90
4910;DHT22;2470;49.868;8.660;2024-03-06T06:09:17;6.70;99.90
4910;DHT22;2470;49.868;8.660;2024-03-06T06:11:43;6.80;99.90
4910;DHT22;2470;49.868;8.660;2024-03-06T06:14:09;6.80;99.90
4910;DHT22;2470;49.868;8.660;2024-03-06T06:16:39;6.90;99.90
4910;DHT22;2470;49.868;8.660;2024-03-06T06:19:06;6.90;99.90
4910;DHT22;2470;49.868;8.660;2024-03-06T06:21:32;7.00;99.90
4910;DHT22;2470;49.868;8.660;2024-03-06T06:24:01;7.10;99.90
4910;DHT22;2470;49.868;8.660;2024-03-06T06:26:27;7.00;99.90
4910;DHT22;2470;49.868;8.660;2024-03-06T06:28:52;7.10;99.90
4910;DHT22;2470;49.868;8.660;2024-03-06T06:31:18;7.10;99.90
4910;DHT22;2470;49.868;8.660;2024-03-06T06:33:43;7.10;99.90
4910;DHT22;2470;49.868;8.660;2024-03-06T06:36:11;7.20;99.90
4910;DHT22;2470;49.868;8.660;2024-03-06T06:38:36;7.20;99.90
4910;DHT22;2470;49.868;8.660;2024-03-06T06:41:01;7.20;99.90
4910;DHT22;2470;49.868;8.660;2024-03-06T06:43:28;7.20;99.90
4910;DHT22;2470;49.868;8.660;2024-03-06T06:45:53;7.30;99.90
4910;DHT22;2470;49.868;8.660;2024-03-06T06:48:19;7.30;99.90
4910;DHT22;2470;49.868;8.660;2024-03-06T06:50:44;7.20;99.90
4910;DHT22;2470;49.868;8.660;2024-03-06T06:53:13;7.20;99.90
4910;DHT22;2470;49.868;8.660;2024-03-06T06:55:39;7.10;99.90
4910;DHT22;2470;49.868;8.660;2024-03-06T06:58:04;7.10;99.90
4910;DHT22;2470;49.868;8.660;2024-03-06T07:00:30;7.10;99.90
4910;DHT22;2470;49.868;8.660;2024-03-06T07:02:55;7.10;99.90
4910;DHT22;2470;49.868;8.660;2024-03-06T07:05:24;7.10;99.90
4910;DHT22;2470;49.868;8.660;2024-03-06T07:07:49;7.20;99.90
4910;DHT22;2470;49.868;8.660;2024-03-06T07:10:15;7.30;99.90
4910;DHT22;2470;49.868;8.660;2024-03-06T07:12:40;7.40;99.90
4910;DHT22;2470;49.868;8.660;2024-03-06T07:15:06;7.50;99.90
4910;DHT22;2470;49.868;8.660;2024-03-06T07:17:32;7.50;99.90
4910;DHT22;2470;49.868;8.660;2024-03-06T07:19:58;7.60;99.90
4910;DHT22;2470;49.868;8.660;2024-03-06T07:22:23;7.70;99.90
4910;DHT22;2470;49.868;8.660;2024-03-06T07:24:49;7.80;99.90
4910;DHT22;2470;49.868;8.660;2024-03-06T07:27:14;7.90;99.90
4910;DHT22;2470;49.868;8.660;2024-03-06T07:29:39;8.00;99.90
4910;DHT22;2470;49.868;8.660;2024-03-06T07:32:05;8.10;99.90
4910;DHT22;2470;49.868;8.660;2024-03-06T07:34:32;8.00;99.90
4910;DHT22;2470;49.868;8.660;2024-03-06T07:36:58;8.20;99.90
4910;DHT22;2470;49.868;8.660;2024-03-06T07:39:25;8.20;99.90
4910;DHT22;2470;49.868;8.660;2024-03-06T07:41:50;8.30;99.90
4910;DHT22;2470;49.868;8.660;2024-03-06T07:44:16;8.40;99.90
4910;DHT22;2470;49.868;8.660;2024-03-06T07:46:42;8.50;99.90
4910;DHT22;2470;49.868;8.660;2024-03-06T07:49:07;8.60;99.90
4910;DHT22;2470;49.868;8.660;2024-03-06T07:51:33;8.80;99.90
4910;DHT22;2470;49.868;8.660;2024-03-06T07:53:58;8.90;99.90
4910;DHT22;2470;49.868;8.660;2024-03-06T07:56:25;9.00;99.90
4910;DHT22;2470;49.868;8.660;2024-03-06T07:58:51;9.00;99.90
4910;DHT22;2470;49.868;8.660;2024-03-06T08:01:17;9.10;99.90
4910;DHT22;2470;49.868;8.660;2024-03-06T08:03:42;9.20;99.90
4910;DHT22;2470;49.868;8.660;2024-03-06T08:06:09;9.40;99.90
4910;DHT22;2470;49.868;8.660;2024-03-06T08:08:44;9.50;99.90
4910;DHT22;2470;49.868;8.660;2024-03-06T08:11:10;9.60;99.90
4910;DHT22;2470;49.868;8.660;2024-03-06T08:13:36;9.60;99.90
4910;DHT22;2470;49.868;8.660;2024-03-06T08:16:02;9.60;99.90
4910;DHT22;2470;49.868;8.660;2024-03-06T08:18:29;9.60;99.90
4910;DHT22;2470;49.868;8.660;2024-03-06T08:20:55;9.60;99.90
4910;DHT22;2470;49.868;8.660;2024-03-06T08:23:20;9.70;99.90
4910;DHT22;2470;49.868;8.660;2024-03-06T08:25:46;9.80;99.90
4910;DHT22;2470;49.868;8.660;2024-03-06T08:28:12;9.80;99.90
4910;DHT22;2470;49.868;8.660;2024-03-06T08:30:37;9.90;99.90
4910;DHT22;2470;49.868;8.660;2024-03-06T08:33:05;10.00;99.90
4910;DHT22;2470;49.868;8.660;2024-03-06T08:35:31;10.00;99.90
4910;DHT22;2470;49.868;8.660;2024-03-06T08:37:57;10.10;99.90
4910;DHT22;2470;49.868;8.660;2024-03-06T08:40:22;10.20;99.90
4910;DHT22;2470;49.868;8.660;2024-03-06T08:42:48;10.20;99.90
4910;DHT22;2470;49.868;8.660;2024-03-06T08:45:15;10.30;99.90
4910;DHT22;2470;49.868;8.660;2024-03-06T08:47:41;10.40;99.90
4910;DHT22;2470;49.868;8.660;2024-03-06T08:50:07;10.40;99.90
4910;DHT22;2470;49.868;8.660;2024-03-06T08:52:33;10.40;99.90
4910;DHT22;2470;49.868;8.660;2024-03-06T08:55:00;10.40;99.90
4910;DHT22;2470;49.868;8.660;2024-03-06T08:57:25;10.50;99.90
4910;DHT22;2470;49.868;8.660;2024-03-06T08:59:56;10.60;99.90
4910;DHT22;2470;49.868;8.660;2024-03-06T09:02:22;10.40;99.90
4910;DHT22;2470;49.868;8.660;2024-03-06T09:04:48;10.50;99.90
4910;DHT22;2470;49.868;8.660;2024-03-06T09:07:14;10.50;99.90
4910;DHT22;2470;49.868;8.660;2024-03-06T09:09:40;10.60;99.90
4910;DHT22;2470;49.868;8.660;2024-03-06T09:12:07;10.70;99.90
4910;DHT22;2470;49.868;8.660;2024-03-06T09:14:36;10.80;99.90
4910;DHT22;2470;49.868;8.660;2024-03-06T09:17:01;10.80;99.90
4910;DHT22;2470;49.868;8.660;2024-03-06T09:19:27;10.80;99.90
4910;DHT22;2470;49.868;8.660;2024-03-06T09:21:53;10.80;99.90
4910;DHT22;2470;49.868;8.660;2024-03-06T09:24:20;10.90;99.90
4910;DHT22;2470;49.868;8.660;2024-03-06T09:26:46;11.00;99.90
4910;DHT22;2470;49.868;8.660;2024-03-06T09:29:12;11.20;99.90
4910;DHT22;2470;49.868;8.660;2024-03-06T09:31:38;11.30;99.90
4910;DHT22;2470;49.868;8.660;2024-03-06T09:34:03;11.40;99.90
4910;DHT22;2470;49.868;8.660;2024-03-06T09:36:29;11.40;99.90
4910;DHT22;2470;49.868;8.660;2024-03-06T09:38:54;11.40;99.90
4910;DHT22;2470;49.868;8.660;2024-03-06T09:41:21;11.40;99.90
4910;DHT22;2470;49.868;8.660;2024-03-06T09:43:47;11.60;99.90
4910;DHT22;2470;49.868;8.660;2024-03-06T09:46:13;11.60;99.90
4910;DHT22;2470;49.868;8.660;2024-03-06T09:48:46;11.60;99.90
4910;DHT22;2470;49.868;8.660;2024-03-06T09:51:12;11.60;99.90
4910;DHT22;2470;49.868;8.660;2024-03-06T09:53:39;11.70;99.90
4910;DHT22;2470;49.868;8.660;2024-03-06T09:56:05;11.80;99.90
4910;DHT22;2470;49.868;8.660;2024-03-06T09:58:31;11.90;99.90
4910;DHT22;2470;49.868;8.660;2024-03-06T10:00:59;12.00;99.90
4910;DHT22;2470;49.868;8.660;2024-03-06T10:03:25;12.10;99.90
4910;DHT22;2470;49.868;8.660;2024-03-06T10:05:52;12.20;99.90
4910;DHT22;2470;49.868;8.660;2024-03-06T10:08:19;12.20;99.90
4910;DHT22;2470;49.868;8.660;2024-03-06T10:10:50;12.30;99.90
4910;DHT22;2470;49.868;8.660;2024-03-06T10:13:18;12.40;99.90
4910;DHT22;2470;49.868;8.660;2024-03-06T10:15:57;12.40;99.90
4910;DHT22;2470;49.868;8.660;2024-03-06T10:18:27;12.50;99.90
4910;DHT22;2470;49.868;8.660;2024-03-06T10:20:53;12.70;99.90
4910;DHT22;2470;49.868;8.660;2024-03-06T10:23:19;12.80;99.90
4910;DHT22;2470;49.868;8.660;2024-03-06T10:25:47;12.80;99.90
4910;DHT22;2470;49.868;8.660;2024-03-06T10:28:17;12.90;99.90
4910;DHT22;2470;49.868;8.660;2024-03-06T10:30:42;12.90;99.90
4910;DHT22;2470;49.868;8.660;2024-03-06T10:33:09;12.90;99.90
4910;DHT22;2470;49.868;8.660;2024-03-06T10:35:35;12.90;99.90
4910;DHT22;2470;49.868;8.660;2024-03-06T10:38:05;12.80;99.90
4910;DHT22;2470;49.868;8.660;2024-03-06T10:40:32;12.80;99.90
4910;DHT22;2470;49.868;8.660;2024-03-06T10:43:02;12.60;99.90
4910;DHT22;2470;49.868;8.660;2024-03-06T10:46:19;12.60;99.90
4910;DHT22;2470;49.868;8.660;2024-03-06T10:48:28;12.80;99.90
4910;DHT22;2470;49.868;8.660;2024-03-06T10:50:55;12.90;99.90
4910;DHT22;2470;49.868;8.660;2024-03-06T10:53:22;13.00;99.90
4910;DHT22;2470;49.868;8.660;2024-03-06T10:55:49;13.10;99.90
4910;DHT22;2470;49.868;8.660;2024-03-06T10:58:15;13.10;99.90
4910;DHT22;2470;49.868;8.660;2024-03-06T11:00:44;13.10;99.90
4910;DHT22;2470;49.868;8.660;2024-03-06T11:03:14;13.00;99.90
4910;DHT22;2470;49.868;8.660;2024-03-06T11:05:43;12.80;99.90
4910;DHT22;2470;49.868;8.660;2024-03-06T11:08:13;12.80;99.90
4910;DHT22;2470;49.868;8.660;2024-03-06T11:10:40;12.80;99.90
4910;DHT22;2470;49.868;8.660;2024-03-06T11:15:46;13.10;99.90
4910;DHT22;2470;49.868;8.660;2024-03-06T11:24:14;13.60;99.90
4910;DHT22;2470;49.868;8.660;2024-03-06T11:26:57;13.80;99.90
4910;DHT22;2470;49.868;8.660;2024-03-06T11:29:27;14.10;99.90
4910;DHT22;2470;49.868;8.660;2024-03-06T11:32:03;14.20;99.90
4910;DHT22;2470;49.868;8.660;2024-03-06T11:34:30;14.20;99.90
4910;DHT22;2470;49.868;8.660;2024-03-06T11:36:58;14.20;99.90
4910;DHT22;2470;49.868;8.660;2024-03-06T11:39:27;14.20;99.90
4910;DHT22;2470;49.868;8.660;2024-03-06T11:41:53;14.20;99.90
4910;DHT22;2470;49.868;8.660;2024-03-06T11:44:22;14.30;99.90
4910;DHT22;2470;49.868;8.660;2024-03-06T11:46:59;14.50;99.90
4910;DHT22;2470;49.868;8.660;2024-03-06T11:49:29;14.70;99.90
4910;DHT22;2470;49.868;8.660;2024-03-06T11:52:07;14.70;99.90
4910;DHT22;2470;49.868;8.660;2024-03-06T11:54:33;14.80;99.90
4910;DHT22;2470;49.868;8.660;2024-03-06T11:57:00;14.90;99.90
4910;DHT22;2470;49.868;8.660;2024-03-06T11:59:28;14.90;99.90
4910;DHT22;2470;49.868;8.660;2024-03-06T12:01:55;14.90;99.90
4910;DHT22;2470;49.868;8.660;2024-03-06T12:04:21;14.80;99.90
4910;DHT22;2470;49.868;8.660;2024-03-06T12:06:47;15.00;99.90
4910;DHT22;2470;49.868;8.660;2024-03-06T12:09:14;15.10;99.90
4910;DHT22;2470;49.868;8.660;2024-03-06T12:11:40;15.10;99.90
4910;DHT22;2470;49.868;8.660;2024-03-06T12:14:06;14.90;99.90
4910;DHT22;2470;49.868;8.660;2024-03-06T12:16:33;14.90;99.90
4910;DHT22;2470;49.868;8.660;2024-03-06T12:18:59;14.90;99.90
4910;DHT22;2470;49.868;8.660;2024-03-06T12:21:31;15.10;99.90
4910;DHT22;2470;49.868;8.660;2024-03-06T12:26:29;15.50;99.60
4910;DHT22;2470;49.868;8.660;2024-03-06T12:29:04;15.40;99.00
4910;DHT22;2470;49.868;8.660;2024-03-06T12:31:31;15.20;99.10
4910;DHT22;2470;49.868;8.660;2024-03-06T12:33:57;15.00;99.60
4910;DHT22;2470;49.868;8.660;2024-03-06T12:36:25;14.90;99.80
4910;DHT22;2470;49.868;8.660;2024-03-06T12:38:55;15.20;99.90
4910;DHT22;2470;49.868;8.660;2024-03-06T12:41:20;15.60;99.40
4910;DHT22;2470;49.868;8.660;2024-03-06T12:43:46;15.80;98.70
4910;DHT22;2470;49.868;8.660;2024-03-06T12:46:11;15.70;98.40
4910;DHT22;2470;49.868;8.660;2024-03-06T12:48:37;15.50;98.20
4910;DHT22;2470;49.868;8.660;2024-03-06T12:51:03;15.10;98.40
4910;DHT22;2470;49.868;8.660;2024-03-06T12:53:30;14.60;98.60
4910;DHT22;2470;49.868;8.660;2024-03-06T12:55:58;14.30;99.30
4910;DHT22;2470;49.868;8.660;2024-03-06T12:58:24;14.10;99.80
4910;DHT22;2470;49.868;8.660;2024-03-06T13:00:49;13.90;99.90
4910;DHT22;2470;49.868;8.660;2024-03-06T13:03:16;13.80;99.90
4910;DHT22;2470;49.868;8.660;2024-03-06T13:05:41;13.70;99.90
4910;DHT22;2470;49.868;8.660;2024-03-06T13:08:07;13.80;99.90
4910;DHT22;2470;49.868;8.660;2024-03-06T13:10:32;13.90;99.90
4910;DHT22;2470;49.868;8.660;2024-03-06T13:12:58;14.00;99.90
4910;DHT22;2470;49.868;8.660;2024-03-06T13:15:23;14.00;99.90
4910;DHT22;2470;49.868;8.660;2024-03-06T13:17:49;13.80;99.90
4910;DHT22;2470;49.868;8.660;2024-03-06T13:20:15;13.60;99.90
4910;DHT22;2470;49.868;8.660;2024-03-06T13:22:40;13.40;99.90
4910;DHT22;2470;49.868;8.660;2024-03-06T13:25:06;13.20;99.90
4910;DHT22;2470;49.868;8.660;2024-03-06T13:27:32;13.10;99.90
4910;DHT22;2470;49.868;8.660;2024-03-06T13:29:58;13.00;99.90
4910;DHT22;2470;49.868;8.660;2024-03-06T13:32:24;12.90;99.90
4910;DHT22;2470;49.868;8.660;2024-03-06T13:34:49;12.90;99.90
4910;DHT22;2470;49.868;8.660;2024-03-06T13:37:15;12.90;99.90
4910;DHT22;2470;49.868;8.660;2024-03-06T13:39:41;12.90;99.90
4910;DHT22;2470;49.868;8.660;2024-03-06T13:42:07;12.90;99.90
4910;DHT22;2470;49.868;8.660;2024-03-06T13:44:36;12.90;99.90
4910;DHT22;2470;49.868;8.660;2024-03-06T13:47:02;13.00;99.90
4910;DHT22;2470;49.868;8.660;2024-03-06T13:49:41;13.00;99.90
4910;DHT22;2470;49.868;8.660;2024-03-06T13:52:08;13.10;99.90
4910;DHT22;2470;49.868;8.660;2024-03-06T13:54:37;13.20;99.90
4910;DHT22;2470;49.868;8.660;2024-03-06T13:57:02;13.40;99.90
4910;DHT22;2470;49.868;8.660;2024-03-06T13:59:30;13.50;99.90
4910;DHT22;2470;49.868;8.660;2024-03-06T14:01:56;13.50;99.90
4910;DHT22;2470;49.868;8.660;2024-03-06T14:04:21;13.50;99.90
4910;DHT22;2470;49.868;8.660;2024-03-06T14:06:47;13.50;99.90
4910;DHT22;2470;49.868;8.660;2024-03-06T14:09:14;13.40;99.90
4910;DHT22;2470;49.868;8.660;2024-03-06T14:11:39;13.40;99.90
4910;DHT22;2470;49.868;8.660;2024-03-06T14:14:06;13.50;99.90
4910;DHT22;2470;49.868;8.660;2024-03-06T14:16:31;13.50;99.90
4910;DHT22;2470;49.868;8.660;2024-03-06T14:18:57;13.50;99.90
4910;DHT22;2470;49.868;8.660;2024-03-06T14:21:23;13.60;99.90
4910;DHT22;2470;49.868;8.660;2024-03-06T14:23:48;13.60;99.90
4910;DHT22;2470;49.868;8.660;2024-03-06T14:26:14;13.60;99.90
4910;DHT22;2470;49.868;8.660;2024-03-06T14:28:41;13.70;99.90
4910;DHT22;2470;49.868;8.660;2024-03-06T14:31:07;13.70;99.90
4910;DHT22;2470;49.868;8.660;2024-03-06T14:33:33;13.80;99.90
4910;DHT22;2470;49.868;8.660;2024-03-06T14:35:59;13.90;99.90
4910;DHT22;2470;49.868;8.660;2024-03-06T14:38:25;13.90;99.90
4910;DHT22;2470;49.868;8.660;2024-03-06T14:40:51;14.10;99.90
4910;DHT22;2470;49.868;8.660;2024-03-06T14:43:16;14.20;99.90
4910;DHT22;2470;49.868;8.660;2024-03-06T14:45:44;14.50;99.90
4910;DHT22;2470;49.868;8.660;2024-03-06T14:48:10;14.70;99.90
4910;DHT22;2470;49.868;8.660;2024-03-06T14:50:36;15.00;99.90
4910;DHT22;2470;49.868;8.660;2024-03-06T14:53:01;15.00;99.90
4910;DHT22;2470;49.868;8.660;2024-03-06T14:55:27;15.00;99.90
4910;DHT22;2470;49.868;8.660;2024-03-06T14:57:53;15.00;99.90
4910;DHT22;2470;49.868;8.660;2024-03-06T15:00:19;14.80;99.90
4910;DHT22;2470;49.868;8.660;2024-03-06T15:02:47;14.60;99.90
4910;DHT22;2470;49.868;8.660;2024-03-06T15:05:12;14.40;99.90
4910;DHT22;2470;49.868;8.660;2024-03-06T15:07:38;14.30;99.90
4910;DHT22;2470;49.868;8.660;2024-03-06T15:10:05;14.20;99.90
4910;DHT22;2470;49.868;8.660;2024-03-06T15:12:31;14.10;99.90
4910;DHT22;2470;49.868;8.660;2024-03-06T15:14:56;14.10;99.90
4910;DHT22;2470;49.868;8.660;2024-03-06T15:17:24;14.00;99.90
4910;DHT22;2470;49.868;8.660;2024-03-06T15:19:51;13.80;99.90
4910;DHT22;2470;49.868;8.660;2024-03-06T15:22:17;13.70;99.90
4910;DHT22;2470;49.868;8.660;2024-03-06T15:24:43;13.70;99.90
4910;DHT22;2470;49.868;8.660;2024-03-06T15:27:11;13.60;99.90
4910;DHT22;2470;49.868;8.660;2024-03-06T15:29:37;13.60;99.90
4910;DHT22;2470;49.868;8.660;2024-03-06T15:32:04;13.50;99.90
4910;DHT22;2470;49.868;8.660;2024-03-06T15:34:30;13.40;99.90
4910;DHT22;2470;49.868;8.660;2024-03-06T15:36:55;13.30;99.90
4910;DHT22;2470;49.868;8.660;2024-03-06T15:39:21;13.30;99.90
4910;DHT22;2470;49.868;8.660;2024-03-06T15:41:47;13.20;99.90
4910;DHT22;2470;49.868;8.660;2024-03-06T15:44:13;13.20;99.90
4910;DHT22;2470;49.868;8.660;2024-03-06T15:46:38;13.10;99.90
4910;DHT22;2470;49.868;8.660;2024-03-06T15:49:18;13.10;99.90
4910;DHT22;2470;49.868;8.660;2024-03-06T15:51:44;13.10;99.90
4910;DHT22;2470;49.868;8.660;2024-03-06T15:54:10;13.00;99.90
4910;DHT22;2470;49.868;8.660;2024-03-06T15:56:35;13.00;99.90
4910;DHT22;2470;49.868;8.660;2024-03-06T15:59:01;12.90;99.90
4910;DHT22;2470;49.868;8.660;2024-03-06T16:01:28;12.90;99.90
4910;DHT22;2470;49.868;8.660;2024-03-06T16:03:53;12.90;99.90
4910;DHT22;2470;49.868;8.660;2024-03-06T16:06:19;12.90;99.90
4910;DHT22;2470;49.868;8.660;2024-03-06T16:08:44;12.90;99.90
4910;DHT22;2470;49.868;8.660;2024-03-06T16:11:10;12.80;99.90
4910;DHT22;2470;49.868;8.660;2024-03-06T16:13:35;12.70;99.90
4910;DHT22;2470;49.868;8.660;2024-03-06T16:16:01;12.60;99.90